Time;durP1;ratioP1;P1;durP2;ratioP2;P2;SDS_P1;SDS_P2;PMS_P1;PMS_P2;Temp;Humidity;BMP_temperature;BMP_pressure;BME280_temperature;BME280_humidity;BME280_pressure;Samples;Min_cycle;Max_cycle;Signal;HPM_P1;HPM_P2
2021/12/03 00:02:05;;;;;;;4.82;1.33;;;0.80;99.90;;;;;;5062525;28;20036;-64
2021/12/03 00:04:31;;;;;;;10.60;1.33;;;0.80;99.90;;;;;;5059117;28;20055;-64
2021/12/03 00:06:56;;;;;;;5.50;1.80;;;0.80;99.90;;;;;;5059926;28;20063;-64
2021/12/03 00:09:22;;;;;;;4.70;1.25;;;0.90;99.90;;;;;;5062396;28;20082;-64
2021/12/03 00:11:48;;;;;;;5.38;1.85;;;0.90;99.90;;;;;;5057952;28;20039;-64
2021/12/03 00:14:13;;;;;;;13.38;4.65;;;0.90;99.90;;;;;;5063757;28;20446;-64
2021/12/03 00:16:39;;;;;;;11.57;3.95;;;1.00;99.90;;;;;;5061175;28;20036;-64
2021/12/03 00:19:05;;;;;;;10.40;3.60;;;0.90;99.90;;;;;;5059230;28;20056;-64
2021/12/03 00:21:31;;;;;;;10.80;4.32;;;0.90;99.90;;;;;;5092688;28;20093;-64
2021/12/03 00:23:57;;;;;;;7.95;3.92;;;1.00;99.90;;;;;;5057862;28;20036;-64
2021/12/03 00:26:23;;;;;;;9.75;4.20;;;1.10;99.90;;;;;;5060453;28;20045;-64
2021/12/03 00:28:48;;;;;;;12.65;4.85;;;1.00;99.90;;;;;;5058783;28;20041;-64
2021/12/03 00:31:14;;;;;;;14.40;6.85;;;1.10;99.90;;;;;;5061602;28;20071;-64
2021/12/03 00:33:40;;;;;;;11.48;5.13;;;1.30;99.90;;;;;;5060288;28;20029;-64
2021/12/03 00:36:08;;;;;;;13.93;5.18;;;1.10;99.90;;;;;;5059527;28;20055;-64
2021/12/03 00:38:40;;;;;;;9.73;5.38;;;1.10;99.90;;;;;;5062566;28;20086;-64
2021/12/03 00:41:12;;;;;;;10.07;5.57;;;1.10;99.90;;;;;;5060671;28;20719;-64
2021/12/03 00:43:45;;;;;;;12.52;5.07;;;1.30;99.90;;;;;;5061765;28;20082;-64
2021/12/03 00:46:14;;;;;;;8.80;4.72;;;1.20;99.90;;;;;;5057589;28;20502;-64
2021/12/03 00:48:40;;;;;;;12.60;5.80;;;1.10;99.90;;;;;;5059768;28;20082;-64
2021/12/03 00:51:07;;;;;;;10.98;5.50;;;1.20;99.90;;;;;;5062050;28;20486;-64
2021/12/03 00:53:34;;;;;;;11.52;5.32;;;1.20;99.90;;;;;;5059167;28;20094;-64
2021/12/03 00:55:59;;;;;;;12.65;5.93;;;1.20;99.90;;;;;;5059090;28;21739;-64
2021/12/03 00:58:25;;;;;;;11.18;5.45;;;1.20;99.90;;;;;;5060045;28;20036;-64
2021/12/03 01:00:51;;;;;;;13.73;5.85;;;1.20;99.90;;;;;;5059080;28;20040;-64
2021/12/03 01:03:16;;;;;;;12.50;4.90;;;1.20;99.90;;;;;;5059576;28;20043;-64
2021/12/03 01:05:42;;;;;;;10.60;5.45;;;1.30;99.90;;;;;;5057389;28;20513;-64
2021/12/03 01:08:07;;;;;;;11.85;5.10;;;1.30;99.90;;;;;;5093554;28;20036;-64
2021/12/03 01:10:33;;;;;;;13.90;5.45;;;1.30;99.90;;;;;;5057653;28;20045;-64
2021/12/03 01:12:59;;;;;;;6.63;4.03;;;1.30;99.90;;;;;;5058479;28;20048;-64
2021/12/03 01:15:33;;;;;;;10.75;4.32;;;1.30;99.90;;;;;;5059081;28;20048;-64
2021/12/03 01:18:00;;;;;;;8.65;4.97;;;1.20;99.90;;;;;;5090512;28;20075;-64
2021/12/03 01:20:26;;;;;;;11.77;4.60;;;0.70;99.90;;;;;;5092804;27;20044;-64
2021/12/03 01:22:53;;;;;;;10.38;5.35;;;1.30;99.90;;;;;;5058016;28;20079;-64
2021/12/03 01:25:21;;;;;;;11.90;4.97;;;1.30;99.90;;;;;;5058332;28;20054;-64
2021/12/03 01:27:48;;;;;;;12.93;4.75;;;1.30;99.90;;;;;;5059524;28;20086;-64
2021/12/03 01:30:17;;;;;;;10.27;5.43;;;1.30;99.90;;;;;;5043781;28;20121;-64
2021/12/03 01:32:43;;;;;;;12.07;5.38;;;1.30;99.90;;;;;;5058843;28;20055;-64
2021/12/03 01:35:11;;;;;;;15.68;6.53;;;1.30;99.90;;;;;;5039189;28;20049;-64
2021/12/03 01:37:37;;;;;;;13.15;6.93;;;1.30;99.90;;;;;;5060287;28;20520;-64
2021/12/03 01:40:05;;;;;;;17.63;8.20;;;1.30;99.90;;;;;;5058800;28;20127;-64
2021/12/03 01:42:31;;;;;;;13.07;8.23;;;1.30;99.90;;;;;;5055150;28;20394;-64
2021/12/03 01:44:57;;;;;;;20.58;8.95;;;1.30;99.90;;;;;;5057404;28;20931;-64
2021/12/03 01:47:22;;;;;;;12.50;8.63;;;1.30;99.90;;;;;;5057726;28;20042;-64
2021/12/03 01:49:48;;;;;;;13.55;9.93;;;1.40;99.90;;;;;;5057038;28;20051;-64
2021/12/03 01:52:14;;;;;;;14.77;9.48;;;1.30;99.90;;;;;;5057262;28;20044;-64
2021/12/03 01:54:39;;;;;;;14.02;10.48;;;1.30;99.90;;;;;;5091644;28;20052;-64
2021/12/03 01:57:05;;;;;;;23.10;12.38;;;1.30;99.90;;;;;;5061291;28;20123;-64
2021/12/03 01:59:31;;;;;;;19.85;11.95;;;1.30;99.90;;;;;;5061449;28;20043;-64
2021/12/03 02:01:58;;;;;;;17.98;11.77;;;1.40;99.90;;;;;;5059479;28;20371;-64
2021/12/03 02:04:23;;;;;;;17.10;12.40;;;1.40;99.90;;;;;;5058800;28;20093;-64
2021/12/03 02:06:49;;;;;;;18.85;12.50;;;1.30;99.90;;;;;;5056642;28;20135;-64
2021/12/03 02:09:15;;;;;;;19.63;14.25;;;1.30;99.90;;;;;;5058004;28;20494;-64
2021/12/03 02:11:41;;;;;;;22.55;13.38;;;1.30;99.90;;;;;;5058044;28;20036;-64
2021/12/03 02:14:06;;;;;;;17.98;13.85;;;1.30;99.90;;;;;;5059342;28;20041;-64
2021/12/03 02:16:32;;;;;;;31.20;14.50;;;1.30;99.90;;;;;;5061458;28;20040;-64
2021/12/03 02:18:58;;;;;;;21.13;14.80;;;1.30;99.90;;;;;;5056626;28;20033;-64
2021/12/03 02:21:24;;;;;;;18.58;15.02;;;1.30;99.90;;;;;;5059232;28;20448;-64
2021/12/03 02:23:52;;;;;;;19.77;16.05;;;1.30;99.90;;;;;;5061545;28;20029;-64
2021/12/03 02:26:19;;;;;;;17.13;14.98;;;1.20;99.90;;;;;;5063303;28;20452;-64
2021/12/03 02:28:48;;;;;;;22.77;15.57;;;1.40;99.90;;;;;;5061332;28;20041;-64
2021/12/03 02:31:18;;;;;;;21.23;14.55;;;1.30;99.90;;;;;;5048622;28;20040;-64
2021/12/03 02:33:44;;;;;;;20.90;15.23;;;1.30;99.90;;;;;;5058297;28;20414;-64
2021/12/03 02:36:10;;;;;;;18.23;14.07;;;1.30;99.90;;;;;;5058535;28;20036;-64
2021/12/03 02:38:36;;;;;;;17.00;14.38;;;1.30;99.90;;;;;;5060061;28;20041;-64
2021/12/03 02:41:03;;;;;;;20.80;15.35;;;1.30;99.90;;;;;;5059441;28;20039;-64
2021/12/03 02:43:29;;;;;;;16.83;13.68;;;1.20;99.90;;;;;;5058939;28;20041;-64
2021/12/03 02:45:56;;;;;;;17.83;14.00;;;1.30;99.90;;;;;;5058798;28;20536;-64
2021/12/03 02:48:23;;;;;;;22.25;14.52;;;1.30;99.90;;;;;;5059200;28;20095;-64
2021/12/03 02:50:49;;;;;;;15.90;13.48;;;1.30;99.90;;;;;;5089946;28;20063;-64
2021/12/03 02:53:15;;;;;;;20.27;13.68;;;1.30;99.90;;;;;;5059075;28;20041;-64
2021/12/03 02:55:41;;;;;;;19.02;13.15;;;1.20;99.90;;;;;;5062414;28;20044;-64
2021/12/03 02:58:07;;;;;;;18.67;14.05;;;1.30;99.90;;;;;;5063351;28;20080;-64
2021/12/03 03:00:34;;;;;;;17.58;13.13;;;1.20;99.90;;;;;;5094393;28;20041;-64
2021/12/03 03:02:59;;;;;;;20.17;14.38;;;1.20;99.90;;;;;;5094215;28;20032;-64
2021/12/03 03:05:26;;;;;;;22.17;13.80;;;1.30;99.90;;;;;;5061967;28;20036;-64
2021/12/03 03:07:53;;;;;;;22.15;13.55;;;1.30;99.90;;;;;;5062936;28;20040;-64
2021/12/03 03:10:25;;;;;;;14.88;13.18;;;1.30;99.90;;;;;;5061104;28;20051;-64
2021/12/03 03:12:52;;;;;;;21.25;13.38;;;1.30;99.90;;;;;;5060173;28;20044;-64
2021/12/03 03:15:18;;;;;;;19.58;14.18;;;1.30;99.90;;;;;;5059623;28;20041;-64
2021/12/03 03:17:45;;;;;;;16.27;12.95;;;1.20;99.90;;;;;;5062791;28;20047;-64
2021/12/03 03:20:12;;;;;;;18.38;13.05;;;1.30;99.90;;;;;;5061207;28;20044;-64
2021/12/03 03:22:40;;;;;;;17.90;13.35;;;1.20;99.90;;;;;;5060964;28;20037;-64
2021/12/03 03:25:08;;;;;;;18.40;13.63;;;1.30;99.90;;;;;;5062017;28;20037;-64
2021/12/03 03:27:35;;;;;;;16.23;12.45;;;1.20;99.90;;;;;;5060115;28;20037;-64
2021/12/03 03:30:01;;;;;;;14.90;12.50;;;1.20;99.90;;;;;;5061029;28;20055;-64
2021/12/03 03:32:28;;;;;;;14.38;12.52;;;1.30;99.90;;;;;;5065874;28;20036;-64
2021/12/03 03:34:53;;;;;;;22.40;14.00;;;1.30;99.90;;;;;;5062383;28;20044;-64
2021/12/03 03:37:20;;;;;;;15.68;12.75;;;1.30;99.90;;;;;;5066221;28;20118;-64
2021/12/03 03:39:46;;;;;;;15.45;12.70;;;1.20;99.90;;;;;;5061455;28;20098;-64
2021/12/03 03:42:13;;;;;;;16.25;13.52;;;1.20;99.90;;;;;;5063511;28;20491;-64
2021/12/03 03:44:39;;;;;;;14.05;12.27;;;1.50;99.90;;;;;;5093743;28;20137;-65
2021/12/03 03:47:06;;;;;;;13.10;11.77;;;1.30;99.90;;;;;;5062017;28;20420;-65
2021/12/03 03:49:33;;;;;;;17.13;12.55;;;1.30;99.90;;;;;;5093221;28;20557;-64
2021/12/03 03:52:00;;;;;;;14.57;12.55;;;1.30;99.90;;;;;;5058888;28;20090;-64
2021/12/03 03:54:27;;;;;;;13.77;12.38;;;1.30;99.90;;;;;;5060180;28;20041;-64
2021/12/03 03:56:52;;;;;;;19.65;12.63;;;1.40;99.90;;;;;;5062038;28;20036;-64
2021/12/03 03:59:18;;;;;;;17.60;12.88;;;1.40;99.90;;;;;;5059607;28;20048;-64
2021/12/03 04:01:48;;;;;;;19.00;12.45;;;1.30;99.90;;;;;;5063361;28;20056;-65
2021/12/03 04:04:15;;;;;;;15.73;12.82;;;1.30;99.90;;;;;;5061926;28;20055;-64
2021/12/03 04:06:41;;;;;;;16.13;12.57;;;1.40;99.90;;;;;;5061549;28;20136;-64
2021/12/03 04:09:08;;;;;;;17.88;13.13;;;1.40;99.90;;;;;;5059799;28;20391;-64
2021/12/03 04:11:34;;;;;;;19.08;13.50;;;1.30;99.90;;;;;;5062829;28;20158;-64
2021/12/03 04:13:59;;;;;;;15.27;12.90;;;1.30;99.90;;;;;;5062066;28;20032;-64
2021/12/03 04:16:26;;;;;;;15.85;12.93;;;1.30;99.90;;;;;;5092207;28;20045;-64
2021/12/03 04:18:53;;;;;;;21.52;12.60;;;1.30;99.90;;;;;;5059667;28;20056;-64
2021/12/03 04:21:18;;;;;;;19.55;13.25;;;1.30;99.90;;;;;;5059673;28;20053;-64
2021/12/03 04:23:44;;;;;;;15.27;12.75;;;1.40;99.90;;;;;;5062242;28;20043;-64
2021/12/03 04:26:10;;;;;;;14.13;12.65;;;1.40;99.90;;;;;;5072768;28;20475;-64
2021/12/03 04:28:36;;;;;;;23.25;13.68;;;1.40;99.90;;;;;;5058306;28;20413;-64
2021/12/03 04:31:02;;;;;;;15.57;13.55;;;1.40;99.90;;;;;;5062281;28;20406;-64
2021/12/03 04:33:28;;;;;;;16.15;13.90;;;1.40;99.90;;;;;;5062038;28;20066;-64
2021/12/03 04:35:54;;;;;;;15.35;11.85;;;1.50;99.90;;;;;;5091199;28;20041;-65
2021/12/03 04:38:19;;;;;;;17.90;13.02;;;1.40;99.90;;;;;;5059721;28;20039;-64
2021/12/03 04:40:47;;;;;;;16.17;12.75;;;1.40;99.90;;;;;;5059537;28;20048;-64
2021/12/03 04:43:13;;;;;;;15.10;12.50;;;1.40;99.90;;;;;;5063499;28;20479;-64
2021/12/03 04:45:38;;;;;;;15.55;12.30;;;1.40;99.90;;;;;;5061619;28;20078;-64
2021/12/03 04:48:07;;;;;;;15.65;12.80;;;1.40;99.90;;;;;;5043346;28;20094;-64
2021/12/03 04:50:36;;;;;;;18.25;12.35;;;1.50;99.90;;;;;;5059759;28;20491;-64
2021/12/03 04:53:03;;;;;;;14.65;12.75;;;1.50;99.90;;;;;;5060807;28;20636;-64
2021/12/03 04:55:28;;;;;;;19.55;12.10;;;1.40;99.90;;;;;;5061117;28;21539;-64
2021/12/03 04:57:54;;;;;;;18.65;11.93;;;1.50;99.90;;;;;;5057931;28;20036;-64
2021/12/03 05:00:28;;;;;;;17.27;12.15;;;1.40;99.90;;;;;;5058637;28;20075;-64
2021/12/03 05:02:55;;;;;;;15.23;11.88;;;1.40;99.90;;;;;;5059056;28;20056;-65
2021/12/03 05:05:23;;;;;;;14.65;11.32;;;1.50;99.90;;;;;;5056979;28;20076;-64
2021/12/03 05:07:58;;;;;;;14.65;11.45;;;1.40;99.90;;;;;;5060581;28;20087;-64
2021/12/03 05:10:27;;;;;;;15.10;11.18;;;1.40;99.90;;;;;;5089253;28;20474;-64
2021/12/03 05:13:00;;;;;;;14.93;11.00;;;1.40;99.90;;;;;;5060075;28;20040;-64
2021/12/03 05:15:26;;;;;;;16.77;11.70;;;1.40;99.90;;;;;;5062918;28;20033;-64
2021/12/03 05:17:52;;;;;;;19.80;13.05;;;1.40;99.90;;;;;;5059112;28;20145;-65
2021/12/03 05:20:17;;;;;;;15.82;12.30;;;1.50;99.90;;;;;;5060024;28;20032;-64
2021/12/03 05:22:43;;;;;;;21.55;12.70;;;1.40;99.90;;;;;;5061698;28;20032;-64
2021/12/03 05:25:09;;;;;;;19.20;12.70;;;1.40;99.90;;;;;;5089878;28;20053;-65
2021/12/03 05:27:35;;;;;;;17.30;12.02;;;1.40;99.90;;;;;;5059557;28;20040;-65
2021/12/03 05:30:02;;;;;;;18.23;12.23;;;1.40;99.90;;;;;;5059453;28;20037;-64
2021/12/03 05:32:28;;;;;;;17.75;12.70;;;1.50;99.90;;;;;;5059679;28;20040;-65
2021/12/03 05:34:53;;;;;;;15.93;12.32;;;1.40;99.90;;;;;;5058885;28;20033;-64
2021/12/03 05:37:19;;;;;;;17.00;13.10;;;1.70;99.90;;;;;;5058782;28;20041;-65
2021/12/03 05:39:45;;;;;;;18.20;12.23;;;1.50;99.90;;;;;;5061635;28;20041;-64
2021/12/03 05:42:10;;;;;;;14.38;12.48;;;1.50;99.90;;;;;;5061300;28;20580;-65
2021/12/03 05:44:36;;;;;;;16.30;11.93;;;1.60;99.90;;;;;;5060594;28;20130;-64
2021/12/03 05:47:03;;;;;;;14.23;11.38;;;1.50;99.90;;;;;;5062371;28;20028;-64
2021/12/03 05:49:29;;;;;;;21.70;12.10;;;1.50;99.90;;;;;;5064858;28;20449;-65
2021/12/03 05:51:55;;;;;;;17.50;11.73;;;1.50;99.90;;;;;;5063182;28;20106;-64
2021/12/03 05:54:21;;;;;;;19.35;11.13;;;1.50;99.90;;;;;;5064619;28;20429;-64
2021/12/03 05:56:48;;;;;;;17.42;12.00;;;1.50;99.90;;;;;;5062798;28;20083;-64
2021/12/03 05:59:13;;;;;;;17.42;12.32;;;1.50;99.90;;;;;;5060281;28;20105;-64
2021/12/03 06:01:39;;;;;;;12.93;10.77;;;1.60;99.90;;;;;;5061726;28;20083;-64
2021/12/03 06:04:05;;;;;;;16.15;11.20;;;1.60;99.90;;;;;;5066169;28;20044;-65
2021/12/03 06:06:30;;;;;;;15.38;12.02;;;1.60;99.90;;;;;;5061974;28;20043;-64
2021/12/03 06:08:58;;;;;;;14.43;10.82;;;1.60;99.90;;;;;;5059893;28;20025;-64
2021/12/03 06:11:24;;;;;;;17.20;10.55;;;1.60;99.90;;;;;;5090146;28;20506;-64
2021/12/03 06:13:50;;;;;;;19.00;11.55;;;1.60;99.90;;;;;;5056127;28;20040;-64
2021/12/03 06:16:16;;;;;;;15.77;9.88;;;1.70;99.90;;;;;;5060140;28;20094;-64
2021/12/03 06:18:42;;;;;;;13.52;9.55;;;1.60;99.90;;;;;;5060153;28;20059;-64
2021/12/03 06:21:10;;;;;;;15.95;8.80;;;1.60;99.90;;;;;;5058231;28;20451;-64
2021/12/03 06:23:36;;;;;;;11.10;9.23;;;1.70;99.90;;;;;;5046515;28;20642;-64
2021/12/03 06:26:02;;;;;;;12.20;8.63;;;1.70;99.90;;;;;;5062583;28;20037;-64
2021/12/03 06:28:30;;;;;;;10.15;8.02;;;1.70;99.90;;;;;;5061921;28;20041;-64
2021/12/03 06:30:56;;;;;;;12.90;8.18;;;1.70;99.90;;;;;;5066197;28;20048;-64
2021/12/03 06:33:21;;;;;;;15.40;8.85;;;1.80;99.90;;;;;;5068839;28;20045;-64
2021/12/03 06:35:48;;;;;;;16.63;7.97;;;1.80;99.90;;;;;;5061001;28;20453;-64
2021/12/03 06:38:15;;;;;;;12.20;8.07;;;1.80;99.90;;;;;;5062126;28;20051;-64
2021/12/03 06:40:42;;;;;;;12.30;7.28;;;2.00;99.90;;;;;;5062196;28;20039;-64
2021/12/03 06:43:08;;;;;;;15.70;7.15;;;1.80;99.90;;;;;;5062996;28;20040;-64
2021/12/03 06:45:34;;;;;;;15.07;8.02;;;1.80;99.90;;;;;;5060930;28;20040;-64
2021/12/03 06:48:00;;;;;;;15.20;8.35;;;1.90;99.90;;;;;;5066677;28;20574;-64
2021/12/03 06:50:26;;;;;;;12.63;6.35;;;1.90;99.90;;;;;;5062835;28;20170;-64
2021/12/03 06:55:25;;;;;;;12.18;7.75;;;2.00;99.90;;;;;;5066190;28;20129;-64
2021/12/03 06:57:51;;;;;;;11.60;7.03;;;2.00;99.90;;;;;;5064492;28;20125;-64
2021/12/03 07:00:17;;;;;;;12.18;7.78;;;2.00;99.90;;;;;;5062531;28;20036;-64
2021/12/03 07:02:42;;;;;;;18.23;8.68;;;2.10;99.90;;;;;;5062689;28;20044;-64
2021/12/03 07:05:09;;;;;;;13.63;8.35;;;2.00;99.90;;;;;;5066649;28;20033;-65
2021/12/03 07:07:35;;;;;;;15.45;8.68;;;2.10;99.90;;;;;;5066893;28;20036;-65
2021/12/03 07:10:02;;;;;;;17.58;9.60;;;2.10;99.90;;;;;;5065631;28;20055;-65
2021/12/03 07:12:28;;;;;;;13.98;8.10;;;2.10;99.90;;;;;;5065888;28;20047;-65
2021/12/03 07:14:53;;;;;;;13.05;8.70;;;2.00;99.90;;;;;;5066380;28;20045;-65
2021/12/03 07:17:20;;;;;;;15.70;9.68;;;2.10;99.90;;;;;;5065744;28;20477;-65
2021/12/03 07:19:46;;;;;;;12.25;8.70;;;2.10;99.90;;;;;;5062848;28;20088;-65
2021/12/03 07:22:11;;;;;;;12.93;8.88;;;2.20;99.90;;;;;;5064154;28;20076;-65
2021/12/03 07:24:37;;;;;;;12.07;8.52;;;2.10;99.90;;;;;;5067592;28;20470;-65
2021/12/03 07:27:05;;;;;;;15.90;9.07;;;2.40;99.90;;;;;;5065361;28;20036;-65
2021/12/03 07:29:32;;;;;;;16.40;9.38;;;2.10;99.90;;;;;;5068109;28;20490;-65
2021/12/03 07:31:57;;;;;;;16.08;10.13;;;2.20;99.90;;;;;;5063794;28;20048;-65
2021/12/03 07:34:23;;;;;;;11.80;9.60;;;2.20;99.90;;;;;;5066932;28;20085;-65
2021/12/03 07:36:48;;;;;;;13.80;9.65;;;2.20;99.90;;;;;;5069605;28;20040;-65
2021/12/03 07:39:14;;;;;;;15.68;9.57;;;2.20;99.90;;;;;;5065375;28;20425;-65
2021/12/03 07:41:41;;;;;;;16.02;9.75;;;2.20;99.90;;;;;;5065386;28;20491;-65
2021/12/03 07:44:09;;;;;;;18.73;10.27;;;2.30;99.90;;;;;;5066535;28;20045;-65
2021/12/03 07:46:35;;;;;;;13.75;10.10;;;2.30;99.90;;;;;;5067274;28;20573;-65
2021/12/03 07:49:00;;;;;;;17.15;10.50;;;2.30;99.90;;;;;;5053063;28;20151;-65
2021/12/03 07:51:26;;;;;;;19.52;10.07;;;2.30;99.90;;;;;;5064406;28;20407;-64
2021/12/03 07:53:52;;;;;;;16.42;10.60;;;2.30;99.90;;;;;;5062373;28;20068;-65
2021/12/03 07:56:18;;;;;;;17.33;10.85;;;2.30;99.90;;;;;;5065807;28;20052;-64
2021/12/03 07:58:45;;;;;;;12.80;9.88;;;2.30;99.90;;;;;;5067774;28;20123;-64
2021/12/03 08:01:10;;;;;;;17.63;9.45;;;2.40;99.90;;;;;;5062519;28;20069;-64
2021/12/03 08:03:36;;;;;;;18.60;10.07;;;2.40;99.90;;;;;;5066405;28;20071;-64
2021/12/03 08:06:08;;;;;;;16.05;9.35;;;2.40;99.90;;;;;;5068856;28;20028;-64
2021/12/03 08:08:36;;;;;;;14.90;9.68;;;2.40;99.90;;;;;;5063867;28;20120;-64
2021/12/03 08:11:02;;;;;;;13.18;9.30;;;2.60;99.90;;;;;;5063644;28;20036;-64
2021/12/03 08:13:27;;;;;;;19.63;9.88;;;2.50;99.90;;;;;;5066550;28;20195;-64
2021/12/03 08:15:53;;;;;;;15.88;10.18;;;2.50;99.90;;;;;;5068350;28;20402;-64
2021/12/03 08:18:20;;;;;;;20.30;10.02;;;2.60;99.90;;;;;;5064437;28;20025;-64
2021/12/03 08:20:46;;;;;;;21.88;10.70;;;2.60;99.90;;;;;;5066060;28;20433;-64
2021/12/03 08:23:12;;;;;;;18.45;10.55;;;2.70;99.90;;;;;;5065481;28;20040;-64
2021/12/03 08:25:38;;;;;;;15.95;9.93;;;2.70;99.90;;;;;;5061329;28;20041;-65
2021/12/03 08:28:04;;;;;;;17.73;10.77;;;2.70;99.90;;;;;;5061877;28;20368;-65
2021/12/03 08:30:30;;;;;;;17.33;11.18;;;2.80;99.90;;;;;;5062063;28;20055;-65
2021/12/03 08:32:57;;;;;;;17.52;11.48;;;2.70;99.90;;;;;;5062469;28;20036;-65
2021/12/03 08:35:23;;;;;;;16.75;12.30;;;2.80;99.90;;;;;;5062522;28;20047;-65
2021/12/03 08:37:50;;;;;;;23.92;13.07;;;2.80;99.90;;;;;;5063931;28;20029;-64
2021/12/03 08:40:17;;;;;;;20.02;13.65;;;2.80;99.90;;;;;;5059498;28;20052;-65
2021/12/03 08:42:43;;;;;;;21.63;14.63;;;2.80;99.90;;;;;;5095234;28;20153;-64
2021/12/03 08:45:10;;;;;;;27.23;15.38;;;2.90;99.90;;;;;;5060135;28;20123;-64
2021/12/03 08:47:37;;;;;;;28.15;15.48;;;3.10;99.90;;;;;;5061545;28;20072;-64
2021/12/03 08:50:08;;;;;;;23.23;15.98;;;2.80;99.90;;;;;;5094157;27;20048;-64
2021/12/03 08:55:12;;;;;;;25.45;18.73;;;2.90;99.90;;;;;;5061263;28;20068;-64
2021/12/03 08:57:38;;;;;;;25.02;16.77;;;2.90;99.90;;;;;;5060998;28;20429;-64
2021/12/03 09:00:13;;;;;;;30.05;16.52;;;2.90;99.90;;;;;;5062711;28;20040;-64
2021/12/03 09:02:40;;;;;;;27.38;18.10;;;2.90;99.90;;;;;;5064468;28;20045;-65
2021/12/03 09:05:07;;;;;;;26.45;17.50;;;2.90;99.90;;;;;;5064882;28;20075;-64
2021/12/03 09:07:34;;;;;;;23.77;17.33;;;2.90;99.90;;;;;;5063994;28;20041;-64
2021/12/03 09:09:59;;;;;;;26.20;18.23;;;3.00;99.90;;;;;;5063558;28;20036;-64
2021/12/03 09:12:25;;;;;;;27.77;18.40;;;2.90;99.90;;;;;;5061385;28;20170;-64
2021/12/03 09:15:00;;;;;;;28.48;18.25;;;2.90;99.90;;;;;;5061856;28;20486;-64
2021/12/03 09:22:59;;;;;;;28.45;19.10;;;2.90;99.90;;;;;;5060165;28;20052;-65
2021/12/03 09:25:34;;;;;;;24.38;18.65;;;3.00;99.90;;;;;;5046935;28;20037;-65
2021/12/03 09:28:02;;;;;;;29.00;19.75;;;3.00;99.90;;;;;;5061853;28;20127;-64
2021/12/03 09:30:35;;;;;;;25.15;17.95;;;3.00;99.90;;;;;;5060658;28;20040;-65
2021/12/03 09:33:03;;;;;;;34.70;21.27;;;2.90;99.90;;;;;;5060137;28;20603;-65
2021/12/03 09:35:30;;;;;;;32.63;19.67;;;2.90;99.90;;;;;;5061607;28;20048;-64
2021/12/03 09:37:56;;;;;;;28.35;17.80;;;2.90;99.90;;;;;;5061862;28;20039;-64
2021/12/03 09:40:25;;;;;;;31.05;18.25;;;3.00;99.90;;;;;;5064682;28;20150;-64
2021/12/03 09:42:51;;;;;;;34.58;18.48;;;3.00;99.90;;;;;;5061169;28;20123;-64
2021/12/03 09:45:17;;;;;;;34.03;17.73;;;3.10;99.90;;;;;;5060973;28;20469;-64
2021/12/03 09:47:43;;;;;;;31.85;17.50;;;3.10;99.90;;;;;;5064743;28;20029;-64
2021/12/03 09:50:14;;;;;;;31.35;17.35;;;3.20;99.90;;;;;;5060185;28;20106;-65
2021/12/03 09:53:06;;;;;;;27.15;15.50;;;3.20;99.90;;;;;;5064339;28;20536;-64
2021/12/03 09:55:32;;;;;;;26.15;14.63;;;3.30;99.90;;;;;;5063457;28;20078;-64
2021/12/03 10:00:55;;;;;;;;;;;3.50;99.90;;;;;;5043598;28;20051;-65
2021/12/03 10:14:27;;;;;;;24.70;11.43;;;3.60;99.90;;;;;;5066146;28;20060;-64
2021/12/03 10:25:32;;;;;;;19.40;9.07;;;3.70;99.90;;;;;;5064845;28;20503;-64
2021/12/03 10:31:23;;;;;;;19.50;7.28;;;3.80;99.90;;;;;;5064934;28;20041;-64
2021/12/03 10:39:36;;;;;;;22.58;6.75;;;3.90;99.90;;;;;;5047086;28;20087;-64
2021/12/03 10:45:57;;;;;;;18.88;5.50;;;3.90;99.90;;;;;;5098512;28;20041;-64
2021/12/03 10:53:26;;;;;;;18.40;5.32;;;3.90;99.90;;;;;;5060018;28;20059;-64
2021/12/03 11:28:50;;;;;;;12.18;4.43;;;3.90;99.90;;;;;;5066500;28;20049;-64
2021/12/03 11:34:20;;;;;;;;;;;3.90;99.90;;;;;;5064100;28;20122;-64
2021/12/03 12:55:45;;;;;;;13.38;4.30;;;3.40;99.90;;;;;;5062153;28;20040;-65
2021/12/03 13:04:06;;;;;;;9.90;3.92;;;3.60;99.90;;;;;;5063315;28;20044;-65
2021/12/03 13:45:31;;;;;;;10.43;4.70;;;3.90;99.90;;;;;;5061415;28;20392;-65
2021/12/03 13:58:47;;;;;;;7.40;3.67;;;3.90;99.90;;;;;;5058215;28;20036;-65
2021/12/03 14:37:09;;;;;;;8.98;5.05;;;4.30;99.90;;;;;;5060512;28;20045;-65
2021/12/03 14:39:50;;;;;;;10.85;5.22;;;4.20;99.90;;;;;;5042931;28;20091;-65
2021/12/03 14:42:33;;;;;;;9.45;4.35;;;4.30;99.90;;;;;;5064988;28;20486;-65
2021/12/03 14:45:06;;;;;;;7.80;3.83;;;4.40;99.90;;;;;;5058917;28;20053;-65
2021/12/03 14:55:35;;;;;;;11.05;4.05;;;4.40;99.90;;;;;;5066260;28;20732;-65
2021/12/03 14:58:09;;;;;;;9.52;3.60;;;4.40;99.90;;;;;;5065007;28;20059;-65
2021/12/03 15:00:48;;;;;;;8.77;3.83;;;4.40;99.90;;;;;;5059655;28;20539;-65
2021/12/03 15:03:28;;;;;;;15.98;4.70;;;4.50;99.90;;;;;;5062501;28;20036;-65
2021/12/03 15:08:35;;;;;;;7.78;3.95;;;4.50;99.90;;;;;;5096057;28;20033;-65
2021/12/03 15:22:07;;;;;;;8.55;4.10;;;4.50;99.90;;;;;;5061212;28;20055;-65
2021/12/03 15:27:41;;;;;;;8.88;4.45;;;4.50;99.90;;;;;;5093251;27;20037;-65
2021/12/03 15:55:15;;;;;;;7.90;5.32;;;4.50;99.90;;;;;;5059348;28;20049;-65
2021/12/03 16:06:12;;;;;;;11.38;6.82;;;4.60;99.90;;;;;;5061532;28;20151;-65
2021/12/03 16:08:39;;;;;;;10.57;5.85;;;4.50;99.90;;;;;;5059333;28;20487;-65
2021/12/03 16:14:03;;;;;;;8.00;6.00;;;4.50;99.90;;;;;;5059794;28;20147;-65
2021/12/03 16:21:52;;;;;;;9.07;6.18;;;4.60;99.90;;;;;;5060038;28;20048;-65
2021/12/03 16:27:22;;;;;;;11.15;7.05;;;4.60;99.90;;;;;;5062014;28;20045;-65
2021/12/03 16:43:34;;;;;;;11.88;8.30;;;4.60;99.90;;;;;;5059630;28;20036;-65
2021/12/03 16:43:42;;;;;;;10.20;8.95;;;4.60;99.90;;;;;;5057695;28;20044;-65
2021/12/03 16:51:34;;;;;;;14.60;10.57;;;4.60;99.90;;;;;;5062435;28;20052;-65
2021/12/03 16:54:08;;;;;;;11.18;10.07;;;4.60;99.90;;;;;;5061890;28;20056;-65
2021/12/03 16:56:35;;;;;;;11.80;10.68;;;4.60;99.90;;;;;;5065053;28;20040;-65
2021/12/03 16:59:03;;;;;;;12.38;11.07;;;4.60;99.90;;;;;;5063119;28;20098;-65
2021/12/03 17:01:41;;;;;;;12.40;10.95;;;4.50;99.90;;;;;;5063875;28;20079;-65
2021/12/03 17:12:39;;;;;;;14.48;13.18;;;4.50;99.90;;;;;;5062494;28;20089;-65
2021/12/03 17:45:37;;;;;;;22.75;19.58;;;4.50;99.90;;;;;;5020674;28;20429;-65
2021/12/03 17:58:29;;;;;;;23.15;20.85;;;4.60;99.90;;;;;;5061912;28;20056;-65
2021/12/03 18:43:13;;;;;;;24.27;21.55;;;4.60;99.90;;;;;;5060431;28;20874;-65
2021/12/03 18:52:35;;;;;;;29.48;26.33;;;4.60;99.90;;;;;;5068110;28;20044;-65
2021/12/03 18:55:03;;;;;;;29.77;26.55;;;4.70;99.90;;;;;;5070980;28;20048;-65
2021/12/03 18:57:34;;;;;;;30.33;25.60;;;4.70;99.90;;;;;;5064964;28;20033;-65
2021/12/03 19:00:04;;;;;;;31.05;27.65;;;4.70;99.90;;;;;;5065181;28;20097;-64
2021/12/03 19:02:38;;;;;;;33.05;29.10;;;4.70;99.90;;;;;;5097289;28;20059;-65
2021/12/03 19:05:54;;;;;;;29.08;25.90;;;4.70;99.90;;;;;;5053864;28;20033;-65
2021/12/03 19:08:09;;;;;;;33.47;28.27;;;4.70;99.90;;;;;;5065900;28;20561;-65
2021/12/03 19:10:42;;;;;;;32.65;28.60;;;4.70;99.90;;;;;;5065151;28;20123;-65
2021/12/03 19:13:13;;;;;;;34.55;30.05;;;4.70;99.90;;;;;;5065748;28;20033;-65
2021/12/03 19:15:41;;;;;;;32.67;28.92;;;4.70;99.90;;;;;;5064464;28;20056;-65
2021/12/03 19:18:07;;;;;;;34.50;29.67;;;4.70;99.90;;;;;;5096825;28;20036;-65
2021/12/03 19:20:36;;;;;;;35.00;29.40;;;4.70;99.90;;;;;;5065081;28;20056;-65
2021/12/03 19:23:02;;;;;;;35.45;30.05;;;4.70;99.90;;;;;;5066505;28;20052;-65
2021/12/03 19:25:28;;;;;;;33.13;29.63;;;4.70;99.90;;;;;;5063585;28;20040;-65
2021/12/03 19:27:54;;;;;;;33.38;29.60;;;4.70;99.90;;;;;;5062702;28;20044;-65
2021/12/03 19:30:20;;;;;;;35.83;30.50;;;4.80;99.90;;;;;;5066400;28;20033;-65
2021/12/03 19:32:46;;;;;;;34.83;31.02;;;4.70;99.90;;;;;;5064053;28;20457;-65
2021/12/03 19:35:11;;;;;;;36.60;29.60;;;4.70;99.90;;;;;;5066439;28;20038;-65
2021/12/03 19:37:37;;;;;;;35.35;29.98;;;4.70;99.90;;;;;;5063200;28;20044;-65
2021/12/03 19:40:08;;;;;;;40.38;31.88;;;4.70;99.90;;;;;;5061694;28;20051;-65
2021/12/03 19:42:39;;;;;;;34.75;29.85;;;4.70;99.90;;;;;;5064977;28;20410;-65
2021/12/03 19:45:08;;;;;;;34.15;29.08;;;4.70;99.90;;;;;;5062169;28;20045;-65
2021/12/03 19:47:46;;;;;;;36.30;29.90;;;4.80;99.90;;;;;;5067359;28;20025;-65
2021/12/03 19:50:23;;;;;;;36.30;30.45;;;4.70;99.90;;;;;;5065735;28;20081;-65
2021/12/03 19:55:24;;;;;;;32.50;29.00;;;4.80;99.90;;;;;;5063289;28;20033;-65
2021/12/03 19:57:50;;;;;;;33.88;28.88;;;4.80;99.90;;;;;;5060790;28;20131;-65
2021/12/03 20:00:16;;;;;;;33.03;28.88;;;4.80;99.90;;;;;;5063314;28;20148;-65
2021/12/03 20:02:42;;;;;;;33.85;29.95;;;5.10;99.90;;;;;;5065101;28;20047;-65
2021/12/03 20:05:08;;;;;;;32.72;27.52;;;4.70;99.90;;;;;;5066319;28;20057;-65
2021/12/03 20:07:34;;;;;;;38.22;28.63;;;4.80;99.90;;;;;;5064482;28;20028;-65
2021/12/03 20:10:36;;;;;;;36.35;29.15;;;4.80;99.90;;;;;;5094312;28;20531;-65